sensor_id;sensor_type;location;lat;lon;timestamp;pressure;altitude;pressure_sealevel;temperature
15607;BMP180;7865;50.918;4.510;2022-09-17T00:04:47;101017.00;;;9.70
15607;BMP180;7865;50.918;4.510;2022-09-17T00:09:49;101018.00;;;9.70
15607;BMP180;7865;50.918;4.510;2022-09-17T00:14:50;101011.00;;;9.80
15607;BMP180;7865;50.918;4.510;2022-09-17T00:19:51;101021.00;;;9.80
15607;BMP180;7865;50.918;4.510;2022-09-17T00:24:52;101011.00;;;9.90
15607;BMP180;7865;50.918;4.510;2022-09-17T00:29:54;101005.00;;;9.80
15607;BMP180;7865;50.918;4.510;2022-09-17T00:34:55;101007.00;;;9.80
15607;BMP180;7865;50.918;4.510;2022-09-17T00:39:56;101020.00;;;9.90
15607;BMP180;7865;50.918;4.510;2022-09-17T00:44:57;101044.00;;;9.90
15607;BMP180;7865;50.918;4.510;2022-09-17T00:50:02;101048.00;;;9.90
15607;BMP180;7865;50.918;4.510;2022-09-17T00:55:28;101038.00;;;9.90
15607;BMP180;7865;50.918;4.510;2022-09-17T01:00:31;101048.00;;;9.90
15607;BMP180;7865;50.918;4.510;2022-09-17T01:05:35;101057.00;;;9.90
15607;BMP180;7865;50.918;4.510;2022-09-17T01:10:50;101049.00;;;9.90
15607;BMP180;7865;50.918;4.510;2022-09-17T01:16:05;101057.00;;;9.90
15607;BMP180;7865;50.918;4.510;2022-09-17T01:32:15;101061.00;;;10.00
15607;BMP180;7865;50.918;4.510;2022-09-17T01:37:33;101056.00;;;10.00
15607;BMP180;7865;50.918;4.510;2022-09-17T01:47:55;101058.00;;;10.00
15607;BMP180;7865;50.918;4.510;2022-09-17T01:52:57;101063.00;;;9.90
15607;BMP180;7865;50.918;4.510;2022-09-17T01:58:05;101067.00;;;9.90
15607;BMP180;7865;50.918;4.510;2022-09-17T02:03:27;101067.00;;;9.80
15607;BMP180;7865;50.918;4.510;2022-09-17T02:08:52;101073.00;;;9.80
15607;BMP180;7865;50.918;4.510;2022-09-17T02:13:58;101077.00;;;9.90
15607;BMP180;7865;50.918;4.510;2022-09-17T02:24:33;101076.00;;;10.00
15607;BMP180;7865;50.918;4.510;2022-09-17T02:29:40;101068.00;;;10.00
15607;BMP180;7865;50.918;4.510;2022-09-17T02:34:42;101067.00;;;10.00
15607;BMP180;7865;50.918;4.510;2022-09-17T02:39:43;101058.00;;;10.00
15607;BMP180;7865;50.918;4.510;2022-09-17T03:00:29;101062.00;;;9.90
15607;BMP180;7865;50.918;4.510;2022-09-17T03:05:31;101054.00;;;9.90
15607;BMP180;7865;50.918;4.510;2022-09-17T03:10:33;101062.00;;;9.80
15607;BMP180;7865;50.918;4.510;2022-09-17T03:15:35;101054.00;;;9.60
15607;BMP180;7865;50.918;4.510;2022-09-17T03:20:36;101059.00;;;9.60
15607;BMP180;7865;50.918;4.510;2022-09-17T03:25:37;101058.00;;;9.60
15607;BMP180;7865;50.918;4.510;2022-09-17T03:30:38;101053.00;;;9.70
15607;BMP180;7865;50.918;4.510;2022-09-17T03:35:43;101040.00;;;9.70
15607;BMP180;7865;50.918;4.510;2022-09-17T03:40:58;101055.00;;;9.70
15607;BMP180;7865;50.918;4.510;2022-09-17T03:46:00;101049.00;;;9.60
15607;BMP180;7865;50.918;4.510;2022-09-17T03:51:02;101052.00;;;9.50
15607;BMP180;7865;50.918;4.510;2022-09-17T03:56:05;101057.00;;;9.50
15607;BMP180;7865;50.918;4.510;2022-09-17T04:01:06;101067.00;;;9.40
15607;BMP180;7865;50.918;4.510;2022-09-17T04:06:07;101063.00;;;9.40
15607;BMP180;7865;50.918;4.510;2022-09-17T04:11:09;101059.00;;;9.30
15607;BMP180;7865;50.918;4.510;2022-09-17T04:16:10;101054.00;;;9.40
15607;BMP180;7865;50.918;4.510;2022-09-17T04:21:12;101070.00;;;9.30
15607;BMP180;7865;50.918;4.510;2022-09-17T04:26:13;101070.00;;;9.40
15607;BMP180;7865;50.918;4.510;2022-09-17T04:31:14;101071.00;;;9.40
15607;BMP180;7865;50.918;4.510;2022-09-17T04:36:16;101063.00;;;9.40
15607;BMP180;7865;50.918;4.510;2022-09-17T04:41:17;101075.00;;;9.40
15607;BMP180;7865;50.918;4.510;2022-09-17T04:46:18;101104.00;;;9.50
15607;BMP180;7865;50.918;4.510;2022-09-17T04:51:20;101087.00;;;9.40
15607;BMP180;7865;50.918;4.510;2022-09-17T04:56:21;101087.00;;;9.30
15607;BMP180;7865;50.918;4.510;2022-09-17T05:01:22;101090.00;;;9.20
15607;BMP180;7865;50.918;4.510;2022-09-17T05:06:23;101086.00;;;9.10
15607;BMP180;7865;50.918;4.510;2022-09-17T05:11:25;101091.00;;;9.10
15607;BMP180;7865;50.918;4.510;2022-09-17T05:16:26;101095.00;;;9.20
15607;BMP180;7865;50.918;4.510;2022-09-17T05:21:27;101093.00;;;9.20
15607;BMP180;7865;50.918;4.510;2022-09-17T05:26:28;101092.00;;;9.30
15607;BMP180;7865;50.918;4.510;2022-09-17T05:31:30;101124.00;;;9.40
15607;BMP180;7865;50.918;4.510;2022-09-17T05:36:31;101141.00;;;9.50
15607;BMP180;7865;50.918;4.510;2022-09-17T05:41:33;101142.00;;;9.50
15607;BMP180;7865;50.918;4.510;2022-09-17T05:46:34;101143.00;;;9.50
15607;BMP180;7865;50.918;4.510;2022-09-17T05:51:35;101148.00;;;9.50
15607;BMP180;7865;50.918;4.510;2022-09-17T05:56:37;101133.00;;;9.50
15607;BMP180;7865;50.918;4.510;2022-09-17T06:01:38;101124.00;;;9.70
15607;BMP180;7865;50.918;4.510;2022-09-17T06:06:39;101123.00;;;9.90
15607;BMP180;7865;50.918;4.510;2022-09-17T06:11:41;101127.00;;;10.00
15607;BMP180;7865;50.918;4.510;2022-09-17T06:16:42;101130.00;;;10.10
15607;BMP180;7865;50.918;4.510;2022-09-17T06:21:45;101124.00;;;10.20
15607;BMP180;7865;50.918;4.510;2022-09-17T06:26:47;101144.00;;;10.20
15607;BMP180;7865;50.918;4.510;2022-09-17T06:31:48;101159.00;;;10.40
15607;BMP180;7865;50.918;4.510;2022-09-17T06:36:49;101152.00;;;10.60
15607;BMP180;7865;50.918;4.510;2022-09-17T06:41:51;101149.00;;;11.00
15607;BMP180;7865;50.918;4.510;2022-09-17T06:46:52;101136.00;;;11.40
15607;BMP180;7865;50.918;4.510;2022-09-17T06:51:53;101130.00;;;11.50
15607;BMP180;7865;50.918;4.510;2022-09-17T06:56:54;101130.00;;;11.50
15607;BMP180;7865;50.918;4.510;2022-09-17T07:01:55;101138.00;;;11.40
15607;BMP180;7865;50.918;4.510;2022-09-17T07:06:57;101144.00;;;12.10
15607;BMP180;7865;50.918;4.510;2022-09-17T07:11:58;101145.00;;;12.60
15607;BMP180;7865;50.918;4.510;2022-09-17T07:16:59;101163.00;;;12.70
15607;BMP180;7865;50.918;4.510;2022-09-17T07:22:00;101149.00;;;12.50
15607;BMP180;7865;50.918;4.510;2022-09-17T07:27:02;101164.00;;;12.40
15607;BMP180;7865;50.918;4.510;2022-09-17T07:32:03;101168.00;;;12.20
15607;BMP180;7865;50.918;4.510;2022-09-17T07:37:04;101171.00;;;12.40
15607;BMP180;7865;50.918;4.510;2022-09-17T07:42:05;101170.00;;;12.10
15607;BMP180;7865;50.918;4.510;2022-09-17T07:47:07;101157.00;;;12.10
15607;BMP180;7865;50.918;4.510;2022-09-17T07:52:08;101175.00;;;12.20
15607;BMP180;7865;50.918;4.510;2022-09-17T07:57:09;101192.00;;;12.20
15607;BMP180;7865;50.918;4.510;2022-09-17T08:02:12;101188.00;;;12.10
15607;BMP180;7865;50.918;4.510;2022-09-17T08:07:14;101183.00;;;12.20
15607;BMP180;7865;50.918;4.510;2022-09-17T08:12:15;101180.00;;;12.20
15607;BMP180;7865;50.918;4.510;2022-09-17T08:17:18;101176.00;;;13.10
15607;BMP180;7865;50.918;4.510;2022-09-17T08:22:19;101177.00;;;14.00
15607;BMP180;7865;50.918;4.510;2022-09-17T08:27:20;101173.00;;;13.90
15607;BMP180;7865;50.918;4.510;2022-09-17T08:32:22;101173.00;;;13.80
15607;BMP180;7865;50.918;4.510;2022-09-17T08:37:24;101173.00;;;13.60
15607;BMP180;7865;50.918;4.510;2022-09-17T08:42:31;101178.00;;;13.10
15607;BMP180;7865;50.918;4.510;2022-09-17T08:47:38;101185.00;;;13.70
15607;BMP180;7865;50.918;4.510;2022-09-17T08:52:57;101170.00;;;15.00
15607;BMP180;7865;50.918;4.510;2022-09-17T09:08:35;101215.00;;;14.10
15607;BMP180;7865;50.918;4.510;2022-09-17T09:13:41;101235.00;;;13.10
15607;BMP180;7865;50.918;4.510;2022-09-17T09:18:43;101232.00;;;12.60
15607;BMP180;7865;50.918;4.510;2022-09-17T09:23:54;101235.00;;;12.40
15607;BMP180;7865;50.918;4.510;2022-09-17T09:34:13;101202.00;;;15.40
15607;BMP180;7865;50.918;4.510;2022-09-17T09:39:22;101188.00;;;16.00
15607;BMP180;7865;50.918;4.510;2022-09-17T09:44:25;101172.00;;;15.80
15607;BMP180;7865;50.918;4.510;2022-09-17T10:00:29;101184.00;;;15.50
15607;BMP180;7865;50.918;4.510;2022-09-17T10:05:30;101198.00;;;14.50
15607;BMP180;7865;50.918;4.510;2022-09-17T10:10:31;101203.00;;;13.90
15607;BMP180;7865;50.918;4.510;2022-09-17T10:15:32;101205.00;;;14.90
15607;BMP180;7865;50.918;4.510;2022-09-17T10:20:34;101216.00;;;15.10
15607;BMP180;7865;50.918;4.510;2022-09-17T10:25:41;101227.00;;;14.00
15607;BMP180;7865;50.918;4.510;2022-09-17T10:30:58;101232.00;;;13.50
15607;BMP180;7865;50.918;4.510;2022-09-17T10:36:05;101226.00;;;13.10
15607;BMP180;7865;50.918;4.510;2022-09-17T10:41:19;101224.00;;;12.60
15607;BMP180;7865;50.918;4.510;2022-09-17T10:46:28;101224.00;;;13.00
15607;BMP180;7865;50.918;4.510;2022-09-17T10:51:31;101211.00;;;13.90
15607;BMP180;7865;50.918;4.510;2022-09-17T10:56:34;101207.00;;;14.80
15607;BMP180;7865;50.918;4.510;2022-09-17T11:07:37;101218.00;;;15.00
15607;BMP180;7865;50.918;4.510;2022-09-17T11:13:03;101212.00;;;14.30
15607;BMP180;7865;50.918;4.510;2022-09-17T11:23:30;101239.00;;;12.70
15607;BMP180;7865;50.918;4.510;2022-09-17T11:39:24;101208.00;;;13.00
15607;BMP180;7865;50.918;4.510;2022-09-17T11:44:35;101204.00;;;13.90
15607;BMP180;7865;50.918;4.510;2022-09-17T11:49:49;101201.00;;;14.70
15607;BMP180;7865;50.918;4.510;2022-09-17T11:55:01;101190.00;;;14.60
15607;BMP180;7865;50.918;4.510;2022-09-17T12:00:12;101188.00;;;15.00
15607;BMP180;7865;50.918;4.510;2022-09-17T12:05:24;101176.00;;;15.30
15607;BMP180;7865;50.918;4.510;2022-09-17T12:15:33;101165.00;;;16.60
15607;BMP180;7865;50.918;4.510;2022-09-17T12:20:39;101164.00;;;17.00
15607;BMP180;7865;50.918;4.510;2022-09-17T12:25:53;101166.00;;;17.20
15607;BMP180;7865;50.918;4.510;2022-09-17T12:31:05;101176.00;;;17.40
15607;BMP180;7865;50.918;4.510;2022-09-17T12:47:41;101183.00;;;17.60
15607;BMP180;7865;50.918;4.510;2022-09-17T12:52:50;101165.00;;;16.60
15607;BMP180;7865;50.918;4.510;2022-09-17T12:58:10;101164.00;;;16.40
15607;BMP180;7865;50.918;4.510;2022-09-17T13:03:23;101151.00;;;16.90
15607;BMP180;7865;50.918;4.510;2022-09-17T13:24:19;101173.00;;;19.50
15607;BMP180;7865;50.918;4.510;2022-09-17T13:34:46;101149.00;;;20.10
15607;BMP180;7865;50.918;4.510;2022-09-17T13:39:49;101148.00;;;21.10
15607;BMP180;7865;50.918;4.510;2022-09-17T13:45:00;101164.00;;;21.30
15607;BMP180;7865;50.918;4.510;2022-09-17T13:50:05;101184.00;;;19.70
15607;BMP180;7865;50.918;4.510;2022-09-17T13:55:08;101186.00;;;17.00
15607;BMP180;7865;50.918;4.510;2022-09-17T14:01:20;101170.00;;;19.80
15607;BMP180;7865;50.918;4.510;2022-09-17T14:21:37;101204.00;;;17.40
15607;BMP180;7865;50.918;4.510;2022-09-17T14:32:27;101214.00;;;15.80
15607;BMP180;7865;50.918;4.510;2022-09-17T14:37:33;101213.00;;;15.70
15607;BMP180;7865;50.918;4.510;2022-09-17T14:42:35;101215.00;;;15.20
15607;BMP180;7865;50.918;4.510;2022-09-17T14:47:38;101221.00;;;14.60
15607;BMP180;7865;50.918;4.510;2022-09-17T14:52:39;101225.00;;;14.50
15607;BMP180;7865;50.918;4.510;2022-09-17T14:57:40;101234.00;;;14.80
15607;BMP180;7865;50.918;4.510;2022-09-17T15:02:41;101225.00;;;15.00
15607;BMP180;7865;50.918;4.510;2022-09-17T15:07:45;101233.00;;;14.50
15607;BMP180;7865;50.918;4.510;2022-09-17T15:12:47;101229.00;;;14.40
15607;BMP180;7865;50.918;4.510;2022-09-17T15:17:50;101233.00;;;14.90
15607;BMP180;7865;50.918;4.510;2022-09-17T15:23:06;101245.00;;;15.40
15607;BMP180;7865;50.918;4.510;2022-09-17T15:28:19;101253.00;;;14.70
15607;BMP180;7865;50.918;4.510;2022-09-17T15:33:24;101254.00;;;13.30
15607;BMP180;7865;50.918;4.510;2022-09-17T15:38:28;101235.00;;;13.20
15607;BMP180;7865;50.918;4.510;2022-09-17T15:43:32;101247.00;;;13.10
15607;BMP180;7865;50.918;4.510;2022-09-17T15:48:36;101239.00;;;12.90
15607;BMP180;7865;50.918;4.510;2022-09-17T15:53:38;101258.00;;;12.30
15607;BMP180;7865;50.918;4.510;2022-09-17T16:08:48;101212.00;;;11.80
15607;BMP180;7865;50.918;4.510;2022-09-17T16:13:51;101216.00;;;11.80
15607;BMP180;7865;50.918;4.510;2022-09-17T16:18:54;101219.00;;;11.70
15607;BMP180;7865;50.918;4.510;2022-09-17T16:23:55;101221.00;;;11.90
15607;BMP180;7865;50.918;4.510;2022-09-17T16:29:02;101219.00;;;12.00
15607;BMP180;7865;50.918;4.510;2022-09-17T16:34:04;101226.00;;;12.00
15607;BMP180;7865;50.918;4.510;2022-09-17T16:39:05;101226.00;;;11.90
15607;BMP180;7865;50.918;4.510;2022-09-17T16:44:06;101225.00;;;11.90
15607;BMP180;7865;50.918;4.510;2022-09-17T16:49:07;101228.00;;;11.80
15607;BMP180;7865;50.918;4.510;2022-09-17T16:54:09;101217.00;;;11.90
15607;BMP180;7865;50.918;4.510;2022-09-17T16:59:10;101224.00;;;11.90
15607;BMP180;7865;50.918;4.510;2022-09-17T17:04:11;101231.00;;;12.00
15607;BMP180;7865;50.918;4.510;2022-09-17T17:09:12;101238.00;;;12.10
15607;BMP180;7865;50.918;4.510;2022-09-17T17:14:14;101234.00;;;12.40
15607;BMP180;7865;50.918;4.510;2022-09-17T17:19:15;101243.00;;;12.40
15607;BMP180;7865;50.918;4.510;2022-09-17T17:24:17;101243.00;;;12.30
15607;BMP180;7865;50.918;4.510;2022-09-17T17:29:19;101258.00;;;12.10
15607;BMP180;7865;50.918;4.510;2022-09-17T17:34:20;101260.00;;;11.90
15607;BMP180;7865;50.918;4.510;2022-09-17T17:39:22;101253.00;;;11.70
15607;BMP180;7865;50.918;4.510;2022-09-17T17:44:24;101265.00;;;11.70
15607;BMP180;7865;50.918;4.510;2022-09-17T17:49:25;101282.00;;;11.60
15607;BMP180;7865;50.918;4.510;2022-09-17T17:54:26;101268.00;;;11.60
15607;BMP180;7865;50.918;4.510;2022-09-17T17:59:28;101280.00;;;11.50
15607;BMP180;7865;50.918;4.510;2022-09-17T18:04:29;101280.00;;;11.50
15607;BMP180;7865;50.918;4.510;2022-09-17T18:09:31;101287.00;;;11.50
15607;BMP180;7865;50.918;4.510;2022-09-17T18:14:32;101291.00;;;11.50
15607;BMP180;7865;50.918;4.510;2022-09-17T18:19:34;101296.00;;;11.40
15607;BMP180;7865;50.918;4.510;2022-09-17T18:24:37;101294.00;;;11.40
15607;BMP180;7865;50.918;4.510;2022-09-17T18:29:38;101304.00;;;11.40
15607;BMP180;7865;50.918;4.510;2022-09-17T18:34:40;101314.00;;;11.30
15607;BMP180;7865;50.918;4.510;2022-09-17T18:39:41;101322.00;;;11.30
15607;BMP180;7865;50.918;4.510;2022-09-17T18:44:59;101320.00;;;11.20
15607;BMP180;7865;50.918;4.510;2022-09-17T18:50:00;101330.00;;;11.20
15607;BMP180;7865;50.918;4.510;2022-09-17T18:55:01;101328.00;;;11.20
15607;BMP180;7865;50.918;4.510;2022-09-17T19:00:04;101344.00;;;11.20
15607;BMP180;7865;50.918;4.510;2022-09-17T19:05:10;101346.00;;;11.20
15607;BMP180;7865;50.918;4.510;2022-09-17T19:10:13;101340.00;;;11.20
15607;BMP180;7865;50.918;4.510;2022-09-17T19:15:15;101333.00;;;11.20
15607;BMP180;7865;50.918;4.510;2022-09-17T19:20:16;101348.00;;;11.20
15607;BMP180;7865;50.918;4.510;2022-09-17T19:25:19;101346.00;;;11.20
15607;BMP180;7865;50.918;4.510;2022-09-17T19:30:22;101331.00;;;11.20
15607;BMP180;7865;50.918;4.510;2022-09-17T19:35:24;101328.00;;;11.10
15607;BMP180;7865;50.918;4.510;2022-09-17T19:40:25;101334.00;;;11.10
15607;BMP180;7865;50.918;4.510;2022-09-17T19:45:28;101341.00;;;11.10
15607;BMP180;7865;50.918;4.510;2022-09-17T19:50:29;101339.00;;;11.10
15607;BMP180;7865;50.918;4.510;2022-09-17T19:55:36;101344.00;;;11.10
15607;BMP180;7865;50.918;4.510;2022-09-17T20:00:38;101349.00;;;11.20
15607;BMP180;7865;50.918;4.510;2022-09-17T20:05:39;101366.00;;;11.20
15607;BMP180;7865;50.918;4.510;2022-09-17T20:10:40;101374.00;;;11.20
15607;BMP180;7865;50.918;4.510;2022-09-17T20:15:42;101359.00;;;11.20
15607;BMP180;7865;50.918;4.510;2022-09-17T20:20:43;101355.00;;;11.20
15607;BMP180;7865;50.918;4.510;2022-09-17T20:25:50;101356.00;;;11.20
15607;BMP180;7865;50.918;4.510;2022-09-17T20:31:22;101361.00;;;11.20
15607;BMP180;7865;50.918;4.510;2022-09-17T20:36:30;101344.00;;;11.20
15607;BMP180;7865;50.918;4.510;2022-09-17T20:41:31;101355.00;;;11.10
15607;BMP180;7865;50.918;4.510;2022-09-17T20:46:34;101348.00;;;11.10
15607;BMP180;7865;50.918;4.510;2022-09-17T20:51:35;101342.00;;;11.10
15607;BMP180;7865;50.918;4.510;2022-09-17T20:56:36;101348.00;;;11.10
15607;BMP180;7865;50.918;4.510;2022-09-17T21:01:38;101332.00;;;11.10
15607;BMP180;7865;50.918;4.510;2022-09-17T21:06:41;101340.00;;;11.00
15607;BMP180;7865;50.918;4.510;2022-09-17T21:11:44;101341.00;;;11.00
15607;BMP180;7865;50.918;4.510;2022-09-17T21:16:45;101340.00;;;11.00
15607;BMP180;7865;50.918;4.510;2022-09-17T21:21:47;101335.00;;;11.00
15607;BMP180;7865;50.918;4.510;2022-09-17T21:26:51;101347.00;;;10.90
15607;BMP180;7865;50.918;4.510;2022-09-17T21:31:54;101336.00;;;10.90
15607;BMP180;7865;50.918;4.510;2022-09-17T21:36:56;101343.00;;;10.90
15607;BMP180;7865;50.918;4.510;2022-09-17T21:41:58;101346.00;;;10.90
15607;BMP180;7865;50.918;4.510;2022-09-17T21:46:59;101332.00;;;10.90
15607;BMP180;7865;50.918;4.510;2022-09-17T21:52:00;101331.00;;;10.90
15607;BMP180;7865;50.918;4.510;2022-09-17T21:57:02;101342.00;;;10.90
15607;BMP180;7865;50.918;4.510;2022-09-17T22:02:03;101337.00;;;10.90
15607;BMP180;7865;50.918;4.510;2022-09-17T22:07:06;101346.00;;;10.80
15607;BMP180;7865;50.918;4.510;2022-09-17T22:12:07;101332.00;;;10.80
15607;BMP180;7865;50.918;4.510;2022-09-17T22:17:08;101330.00;;;10.90
15607;BMP180;7865;50.918;4.510;2022-09-17T22:22:10;101342.00;;;10.90
15607;BMP180;7865;50.918;4.510;2022-09-17T22:27:11;101342.00;;;10.90
15607;BMP180;7865;50.918;4.510;2022-09-17T22:32:12;101340.00;;;10.90
15607;BMP180;7865;50.918;4.510;2022-09-17T22:37:14;101336.00;;;10.90
15607;BMP180;7865;50.918;4.510;2022-09-17T22:42:16;101348.00;;;11.00
15607;BMP180;7865;50.918;4.510;2022-09-17T22:47:17;101343.00;;;11.00
15607;BMP180;7865;50.918;4.510;2022-09-17T22:52:18;101334.00;;;11.00
15607;BMP180;7865;50.918;4.510;2022-09-17T22:57:19;101335.00;;;11.00
15607;BMP180;7865;50.918;4.510;2022-09-17T23:02:20;101331.00;;;11.00
15607;BMP180;7865;50.918;4.510;2022-09-17T23:07:22;101326.00;;;11.00
15607;BMP180;7865;50.918;4.510;2022-09-17T23:12:23;101309.00;;;11.00
15607;BMP180;7865;50.918;4.510;2022-09-17T23:17:24;101311.00;;;11.00
15607;BMP180;7865;50.918;4.510;2022-09-17T23:22:30;101306.00;;;11.00
15607;BMP180;7865;50.918;4.510;2022-09-17T23:27:31;101310.00;;;11.00
15607;BMP180;7865;50.918;4.510;2022-09-17T23:32:32;101308.00;;;11.00
15607;BMP180;7865;50.918;4.510;2022-09-17T23:37:33;101308.00;;;11.00
15607;BMP180;7865;50.918;4.510;2022-09-17T23:42:35;101312.00;;;10.90
15607;BMP180;7865;50.918;4.510;2022-09-17T23:47:36;101312.00;;;10.90
15607;BMP180;7865;50.918;4.510;2022-09-17T23:52:37;101301.00;;;10.90
15607;BMP180;7865;50.918;4.510;2022-09-17T23:57:39;101301.00;;;10.80
